sensor_id;sensor_type;location;lat;lon;timestamp;P1;durP1;ratioP1;P2;durP2;ratioP2
51732;SDS011;39139;53.144;6.244;2022-10-15T00:01:45;63.08;;;44.05;;
51732;SDS011;39139;53.144;6.244;2022-10-15T00:04:10;57.70;;;42.70;;
51732;SDS011;39139;53.144;6.244;2022-10-15T00:06:36;59.42;;;41.67;;
51732;SDS011;39139;53.144;6.244;2022-10-15T00:09:01;58.50;;;42.05;;
51732;SDS011;39139;53.144;6.244;2022-10-15T00:11:27;58.17;;;41.00;;
51732;SDS011;39139;53.144;6.244;2022-10-15T00:13:57;54.35;;;40.88;;
51732;SDS011;39139;53.144;6.244;2022-10-15T00:16:24;62.08;;;42.13;;
51732;SDS011;39139;53.144;6.244;2022-10-15T00:18:51;56.45;;;41.63;;
51732;SDS011;39139;53.144;6.244;2022-10-15T00:21:19;58.58;;;41.05;;
51732;SDS011;39139;53.144;6.244;2022-10-15T00:23:46;56.55;;;42.03;;
51732;SDS011;39139;53.144;6.244;2022-10-15T00:26:20;58.67;;;40.90;;
51732;SDS011;39139;53.144;6.244;2022-10-15T00:28:49;54.78;;;40.67;;
51732;SDS011;39139;53.144;6.244;2022-10-15T00:31:16;52.70;;;38.80;;
51732;SDS011;39139;53.144;6.244;2022-10-15T00:33:45;55.33;;;38.35;;
51732;SDS011;39139;53.144;6.244;2022-10-15T00:36:13;56.58;;;39.45;;
51732;SDS011;39139;53.144;6.244;2022-10-15T00:38:41;52.85;;;39.10;;
51732;SDS011;39139;53.144;6.244;2022-10-15T00:41:07;53.15;;;39.00;;
51732;SDS011;39139;53.144;6.244;2022-10-15T00:43:47;50.70;;;38.10;;
51732;SDS011;39139;53.144;6.244;2022-10-15T00:46:16;58.58;;;41.00;;
51732;SDS011;39139;53.144;6.244;2022-10-15T00:48:50;52.03;;;39.60;;
51732;SDS011;39139;53.144;6.244;2022-10-15T00:51:19;57.17;;;39.33;;
51732;SDS011;39139;53.144;6.244;2022-10-15T00:53:47;51.75;;;38.00;;
51732;SDS011;39139;53.144;6.244;2022-10-15T00:56:15;57.33;;;39.97;;
51732;SDS011;39139;53.144;6.244;2022-10-15T00:58:44;54.42;;;38.40;;
51732;SDS011;39139;53.144;6.244;2022-10-15T01:01:10;54.20;;;38.78;;
51732;SDS011;39139;53.144;6.244;2022-10-15T01:03:37;59.35;;;39.90;;
51732;SDS011;39139;53.144;6.244;2022-10-15T01:06:02;53.60;;;39.33;;
51732;SDS011;39139;53.144;6.244;2022-10-15T01:08:28;51.92;;;36.47;;
51732;SDS011;39139;53.144;6.244;2022-10-15T01:10:57;52.20;;;38.53;;
51732;SDS011;39139;53.144;6.244;2022-10-15T01:14:16;52.75;;;38.17;;
51732;SDS011;39139;53.144;6.244;2022-10-15T01:16:30;53.70;;;36.40;;
51732;SDS011;39139;53.144;6.244;2022-10-15T01:22:15;50.78;;;37.65;;
51732;SDS011;39139;53.144;6.244;2022-10-15T01:25:03;49.88;;;34.03;;
51732;SDS011;39139;53.144;6.244;2022-10-15T01:28:16;54.10;;;41.00;;
51732;SDS011;39139;53.144;6.244;2022-10-15T01:31:03;51.50;;;35.55;;
51732;SDS011;39139;53.144;6.244;2022-10-15T01:33:55;49.88;;;38.50;;
51732;SDS011;39139;53.144;6.244;2022-10-15T01:38:58;52.88;;;37.90;;
51732;SDS011;39139;53.144;6.244;2022-10-15T01:46:52;52.63;;;34.97;;
51732;SDS011;39139;53.144;6.244;2022-10-15T01:49:24;53.08;;;36.33;;
51732;SDS011;39139;53.144;6.244;2022-10-15T01:51:52;54.35;;;37.88;;
51732;SDS011;39139;53.144;6.244;2022-10-15T01:54:19;54.75;;;38.88;;
51732;SDS011;39139;53.144;6.244;2022-10-15T01:56:49;48.13;;;35.83;;
51732;SDS011;39139;53.144;6.244;2022-10-15T01:59:17;53.78;;;36.47;;
51732;SDS011;39139;53.144;6.244;2022-10-15T02:01:46;66.43;;;41.78;;
51732;SDS011;39139;53.144;6.244;2022-10-15T02:04:23;58.65;;;40.78;;
51732;SDS011;39139;53.144;6.244;2022-10-15T02:07:13;54.10;;;36.20;;
51732;SDS011;39139;53.144;6.244;2022-10-15T02:09:49;57.35;;;37.72;;
51732;SDS011;39139;53.144;6.244;2022-10-15T02:15:25;62.50;;;38.08;;
51732;SDS011;39139;53.144;6.244;2022-10-15T02:23:20;62.05;;;38.92;;
51732;SDS011;39139;53.144;6.244;2022-10-15T02:25:51;56.17;;;38.80;;
51732;SDS011;39139;53.144;6.244;2022-10-15T02:28:18;50.63;;;36.78;;
51732;SDS011;39139;53.144;6.244;2022-10-15T02:30:47;55.00;;;37.67;;
51732;SDS011;39139;53.144;6.244;2022-10-15T02:33:16;56.47;;;39.35;;
51732;SDS011;39139;53.144;6.244;2022-10-15T02:35:44;51.63;;;36.72;;
51732;SDS011;39139;53.144;6.244;2022-10-15T02:38:13;59.55;;;38.35;;
51732;SDS011;39139;53.144;6.244;2022-10-15T02:40:42;59.85;;;35.35;;
51732;SDS011;39139;53.144;6.244;2022-10-15T02:43:09;46.92;;;33.97;;
51732;SDS011;39139;53.144;6.244;2022-10-15T02:45:37;51.47;;;34.88;;
51732;SDS011;39139;53.144;6.244;2022-10-15T02:48:03;49.85;;;34.08;;
51732;SDS011;39139;53.144;6.244;2022-10-15T02:50:30;50.97;;;35.05;;
51732;SDS011;39139;53.144;6.244;2022-10-15T02:52:55;54.97;;;35.58;;
51732;SDS011;39139;53.144;6.244;2022-10-15T02:55:21;57.53;;;37.95;;
51732;SDS011;39139;53.144;6.244;2022-10-15T02:57:46;55.08;;;36.47;;
51732;SDS011;39139;53.144;6.244;2022-10-15T03:00:12;52.17;;;34.97;;
51732;SDS011;39139;53.144;6.244;2022-10-15T03:02:38;53.65;;;34.95;;
51732;SDS011;39139;53.144;6.244;2022-10-15T03:05:04;56.75;;;36.20;;
51732;SDS011;39139;53.144;6.244;2022-10-15T03:07:29;55.20;;;38.10;;
51732;SDS011;39139;53.144;6.244;2022-10-15T03:09:55;56.33;;;36.85;;
51732;SDS011;39139;53.144;6.244;2022-10-15T03:12:21;53.00;;;36.78;;
51732;SDS011;39139;53.144;6.244;2022-10-15T03:14:50;58.22;;;39.13;;
51732;SDS011;39139;53.144;6.244;2022-10-15T03:17:16;55.85;;;36.95;;
51732;SDS011;39139;53.144;6.244;2022-10-15T03:19:42;56.20;;;37.67;;
51732;SDS011;39139;53.144;6.244;2022-10-15T03:22:08;51.90;;;35.40;;
51732;SDS011;39139;53.144;6.244;2022-10-15T03:24:33;63.50;;;40.95;;
51732;SDS011;39139;53.144;6.244;2022-10-15T03:26:59;53.28;;;35.35;;
51732;SDS011;39139;53.144;6.244;2022-10-15T03:29:24;57.42;;;39.13;;
51732;SDS011;39139;53.144;6.244;2022-10-15T03:31:50;70.50;;;40.95;;
51732;SDS011;39139;53.144;6.244;2022-10-15T03:34:16;54.75;;;37.47;;
51732;SDS011;39139;53.144;6.244;2022-10-15T03:36:42;49.05;;;35.55;;
51732;SDS011;39139;53.144;6.244;2022-10-15T03:39:07;52.80;;;37.08;;
51732;SDS011;39139;53.144;6.244;2022-10-15T03:41:33;51.60;;;35.17;;
51732;SDS011;39139;53.144;6.244;2022-10-15T03:43:59;48.10;;;35.42;;
51732;SDS011;39139;53.144;6.244;2022-10-15T03:46:26;53.53;;;35.45;;
51732;SDS011;39139;53.144;6.244;2022-10-15T03:48:51;52.22;;;35.80;;
51732;SDS011;39139;53.144;6.244;2022-10-15T03:51:17;66.57;;;39.20;;
51732;SDS011;39139;53.144;6.244;2022-10-15T03:53:43;56.95;;;36.88;;
51732;SDS011;39139;53.144;6.244;2022-10-15T03:56:08;56.90;;;38.95;;
51732;SDS011;39139;53.144;6.244;2022-10-15T03:58:34;57.25;;;37.60;;
51732;SDS011;39139;53.144;6.244;2022-10-15T04:00:59;54.47;;;38.17;;
51732;SDS011;39139;53.144;6.244;2022-10-15T04:03:25;57.85;;;37.15;;
51732;SDS011;39139;53.144;6.244;2022-10-15T04:05:51;52.85;;;35.65;;
51732;SDS011;39139;53.144;6.244;2022-10-15T04:08:18;59.95;;;39.05;;
51732;SDS011;39139;53.144;6.244;2022-10-15T04:10:43;65.20;;;37.85;;
51732;SDS011;39139;53.144;6.244;2022-10-15T04:13:10;62.72;;;41.80;;
51732;SDS011;39139;53.144;6.244;2022-10-15T04:15:38;63.47;;;39.83;;
51732;SDS011;39139;53.144;6.244;2022-10-15T04:18:04;61.43;;;38.00;;
51732;SDS011;39139;53.144;6.244;2022-10-15T04:20:30;65.68;;;39.88;;
51732;SDS011;39139;53.144;6.244;2022-10-15T04:22:55;58.20;;;37.00;;
51732;SDS011;39139;53.144;6.244;2022-10-15T04:25:21;56.22;;;36.90;;
51732;SDS011;39139;53.144;6.244;2022-10-15T04:27:46;60.13;;;37.95;;
51732;SDS011;39139;53.144;6.244;2022-10-15T04:30:12;57.60;;;39.00;;
51732;SDS011;39139;53.144;6.244;2022-10-15T04:32:38;60.00;;;39.75;;
51732;SDS011;39139;53.144;6.244;2022-10-15T04:35:04;68.57;;;40.95;;
51732;SDS011;39139;53.144;6.244;2022-10-15T04:37:32;59.95;;;38.85;;
51732;SDS011;39139;53.144;6.244;2022-10-15T04:39:58;57.25;;;38.00;;
51732;SDS011;39139;53.144;6.244;2022-10-15T04:42:23;65.18;;;39.33;;
51732;SDS011;39139;53.144;6.244;2022-10-15T04:44:49;64.20;;;39.40;;
51732;SDS011;39139;53.144;6.244;2022-10-15T04:47:14;62.72;;;40.65;;
51732;SDS011;39139;53.144;6.244;2022-10-15T04:49:40;64.88;;;41.38;;
51732;SDS011;39139;53.144;6.244;2022-10-15T04:52:06;59.58;;;40.75;;
51732;SDS011;39139;53.144;6.244;2022-10-15T04:54:31;63.70;;;38.25;;
51732;SDS011;39139;53.144;6.244;2022-10-15T04:56:57;66.22;;;39.80;;
51732;SDS011;39139;53.144;6.244;2022-10-15T04:59:23;60.15;;;39.80;;
51732;SDS011;39139;53.144;6.244;2022-10-15T05:01:48;58.47;;;36.90;;
51732;SDS011;39139;53.144;6.244;2022-10-15T05:04:14;59.55;;;39.38;;
51732;SDS011;39139;53.144;6.244;2022-10-15T05:06:39;63.92;;;40.03;;
51732;SDS011;39139;53.144;6.244;2022-10-15T05:09:05;62.97;;;39.38;;
51732;SDS011;39139;53.144;6.244;2022-10-15T05:11:33;60.17;;;40.40;;
51732;SDS011;39139;53.144;6.244;2022-10-15T05:14:02;69.45;;;43.92;;
51732;SDS011;39139;53.144;6.244;2022-10-15T05:16:28;59.63;;;40.28;;
51732;SDS011;39139;53.144;6.244;2022-10-15T05:18:55;63.47;;;41.55;;
51732;SDS011;39139;53.144;6.244;2022-10-15T05:21:28;59.97;;;40.05;;
51732;SDS011;39139;53.144;6.244;2022-10-15T05:23:55;65.38;;;41.03;;
51732;SDS011;39139;53.144;6.244;2022-10-15T05:26:22;71.10;;;42.13;;
51732;SDS011;39139;53.144;6.244;2022-10-15T05:28:49;66.53;;;43.63;;
51732;SDS011;39139;53.144;6.244;2022-10-15T05:31:22;62.15;;;40.22;;
51732;SDS011;39139;53.144;6.244;2022-10-15T05:33:49;68.40;;;43.20;;
51732;SDS011;39139;53.144;6.244;2022-10-15T05:36:17;60.30;;;40.45;;
51732;SDS011;39139;53.144;6.244;2022-10-15T05:38:45;59.63;;;40.75;;
51732;SDS011;39139;53.144;6.244;2022-10-15T05:41:12;61.85;;;40.95;;
51732;SDS011;39139;53.144;6.244;2022-10-15T05:43:38;66.68;;;40.05;;
51732;SDS011;39139;53.144;6.244;2022-10-15T05:46:04;60.58;;;40.10;;
51732;SDS011;39139;53.144;6.244;2022-10-15T05:48:30;73.55;;;40.05;;
51732;SDS011;39139;53.144;6.244;2022-10-15T05:51:05;73.95;;;44.80;;
51732;SDS011;39139;53.144;6.244;2022-10-15T05:53:32;80.93;;;46.33;;
51732;SDS011;39139;53.144;6.244;2022-10-15T05:55:58;75.25;;;47.40;;
51732;SDS011;39139;53.144;6.244;2022-10-15T05:58:24;67.82;;;45.95;;
51732;SDS011;39139;53.144;6.244;2022-10-15T06:00:54;82.45;;;48.38;;
51732;SDS011;39139;53.144;6.244;2022-10-15T06:03:21;84.22;;;49.75;;
51732;SDS011;39139;53.144;6.244;2022-10-15T06:05:47;75.47;;;48.45;;
51732;SDS011;39139;53.144;6.244;2022-10-15T06:08:13;70.28;;;45.72;;
51732;SDS011;39139;53.144;6.244;2022-10-15T06:10:39;81.05;;;50.70;;
51732;SDS011;39139;53.144;6.244;2022-10-15T06:13:06;85.25;;;51.95;;
51732;SDS011;39139;53.144;6.244;2022-10-15T06:15:32;79.97;;;48.63;;
51732;SDS011;39139;53.144;6.244;2022-10-15T06:17:58;86.05;;;53.05;;
51732;SDS011;39139;53.144;6.244;2022-10-15T06:20:24;79.43;;;46.42;;
51732;SDS011;39139;53.144;6.244;2022-10-15T06:22:50;84.38;;;49.03;;
51732;SDS011;39139;53.144;6.244;2022-10-15T06:25:16;89.75;;;53.03;;
51732;SDS011;39139;53.144;6.244;2022-10-15T06:27:41;86.65;;;50.42;;
51732;SDS011;39139;53.144;6.244;2022-10-15T06:30:07;83.35;;;51.45;;
51732;SDS011;39139;53.144;6.244;2022-10-15T06:32:33;81.95;;;50.45;;
51732;SDS011;39139;53.144;6.244;2022-10-15T06:34:59;89.85;;;51.33;;
51732;SDS011;39139;53.144;6.244;2022-10-15T06:37:24;92.80;;;55.17;;
51732;SDS011;39139;53.144;6.244;2022-10-15T06:39:52;84.80;;;50.78;;
51732;SDS011;39139;53.144;6.244;2022-10-15T06:42:18;98.78;;;54.90;;
51732;SDS011;39139;53.144;6.244;2022-10-15T06:44:43;87.65;;;53.38;;
51732;SDS011;39139;53.144;6.244;2022-10-15T06:47:09;93.93;;;55.40;;
51732;SDS011;39139;53.144;6.244;2022-10-15T06:49:34;95.25;;;53.15;;
51732;SDS011;39139;53.144;6.244;2022-10-15T06:52:00;85.72;;;53.00;;
51732;SDS011;39139;53.144;6.244;2022-10-15T06:54:26;96.03;;;57.10;;
51732;SDS011;39139;53.144;6.244;2022-10-15T06:56:51;98.95;;;53.92;;
51732;SDS011;39139;53.144;6.244;2022-10-15T06:59:17;95.85;;;54.15;;
51732;SDS011;39139;53.144;6.244;2022-10-15T07:01:42;103.32;;;57.58;;
51732;SDS011;39139;53.144;6.244;2022-10-15T07:04:08;103.00;;;56.53;;
51732;SDS011;39139;53.144;6.244;2022-10-15T07:06:34;107.78;;;59.70;;
51732;SDS011;39139;53.144;6.244;2022-10-15T07:09:03;88.40;;;55.17;;
51732;SDS011;39139;53.144;6.244;2022-10-15T07:11:29;96.05;;;57.00;;
51732;SDS011;39139;53.144;6.244;2022-10-15T07:13:55;99.35;;;53.60;;
51732;SDS011;39139;53.144;6.244;2022-10-15T07:16:22;95.22;;;56.35;;
51732;SDS011;39139;53.144;6.244;2022-10-15T07:18:48;90.32;;;57.90;;
51732;SDS011;39139;53.144;6.244;2022-10-15T07:21:13;95.82;;;55.70;;
51732;SDS011;39139;53.144;6.244;2022-10-15T07:23:39;93.88;;;56.70;;
51732;SDS011;39139;53.144;6.244;2022-10-15T07:26:05;95.40;;;54.42;;
51732;SDS011;39139;53.144;6.244;2022-10-15T07:28:30;89.85;;;54.05;;
51732;SDS011;39139;53.144;6.244;2022-10-15T07:31:03;86.53;;;54.50;;
51732;SDS011;39139;53.144;6.244;2022-10-15T07:33:30;103.70;;;58.30;;
51732;SDS011;39139;53.144;6.244;2022-10-15T07:35:58;93.10;;;55.22;;
51732;SDS011;39139;53.144;6.244;2022-10-15T07:38:27;91.63;;;55.70;;
51732;SDS011;39139;53.144;6.244;2022-10-15T07:40:56;94.88;;;58.03;;
51732;SDS011;39139;53.144;6.244;2022-10-15T07:43:22;93.15;;;56.03;;
51732;SDS011;39139;53.144;6.244;2022-10-15T07:45:48;89.00;;;54.78;;
51732;SDS011;39139;53.144;6.244;2022-10-15T07:48:14;97.40;;;59.15;;
51732;SDS011;39139;53.144;6.244;2022-10-15T07:50:40;97.45;;;56.05;;
51732;SDS011;39139;53.144;6.244;2022-10-15T07:53:05;93.35;;;55.28;;
51732;SDS011;39139;53.144;6.244;2022-10-15T07:55:31;96.30;;;59.28;;
51732;SDS011;39139;53.144;6.244;2022-10-15T07:57:57;96.97;;;58.45;;
51732;SDS011;39139;53.144;6.244;2022-10-15T08:00:23;99.13;;;57.85;;
51732;SDS011;39139;53.144;6.244;2022-10-15T08:02:48;92.15;;;60.15;;
51732;SDS011;39139;53.144;6.244;2022-10-15T08:05:14;93.35;;;55.20;;
51732;SDS011;39139;53.144;6.244;2022-10-15T08:07:40;91.95;;;55.95;;
51732;SDS011;39139;53.144;6.244;2022-10-15T08:10:06;96.43;;;55.85;;
51732;SDS011;39139;53.144;6.244;2022-10-15T08:12:33;96.28;;;57.92;;
51732;SDS011;39139;53.144;6.244;2022-10-15T08:14:59;94.13;;;57.30;;
51732;SDS011;39139;53.144;6.244;2022-10-15T08:17:25;100.68;;;61.60;;
51732;SDS011;39139;53.144;6.244;2022-10-15T08:19:51;99.60;;;59.03;;
51732;SDS011;39139;53.144;6.244;2022-10-15T08:22:17;98.20;;;59.50;;
51732;SDS011;39139;53.144;6.244;2022-10-15T08:24:43;98.90;;;58.17;;
51732;SDS011;39139;53.144;6.244;2022-10-15T08:27:09;104.35;;;61.70;;
51732;SDS011;39139;53.144;6.244;2022-10-15T08:29:34;107.15;;;61.10;;
51732;SDS011;39139;53.144;6.244;2022-10-15T08:32:00;95.05;;;54.92;;
51732;SDS011;39139;53.144;6.244;2022-10-15T08:34:26;92.95;;;53.13;;
51732;SDS011;39139;53.144;6.244;2022-10-15T08:36:51;94.70;;;57.13;;
51732;SDS011;39139;53.144;6.244;2022-10-15T08:39:17;98.10;;;56.03;;
51732;SDS011;39139;53.144;6.244;2022-10-15T08:41:50;93.28;;;53.63;;
51732;SDS011;39139;53.144;6.244;2022-10-15T08:46:55;93.20;;;54.38;;
51732;SDS011;39139;53.144;6.244;2022-10-15T08:52:02;88.72;;;51.63;;
51732;SDS011;39139;53.144;6.244;2022-10-15T08:54:40;87.05;;;50.55;;
51732;SDS011;39139;53.144;6.244;2022-10-15T09:02:53;85.25;;;49.53;;
51732;SDS011;39139;53.144;6.244;2022-10-15T09:05:25;85.70;;;48.85;;
51732;SDS011;39139;53.144;6.244;2022-10-15T09:07:52;91.75;;;51.38;;
51732;SDS011;39139;53.144;6.244;2022-10-15T09:10:38;82.88;;;47.00;;
51732;SDS011;39139;53.144;6.244;2022-10-15T09:13:30;78.15;;;48.05;;
51732;SDS011;39139;53.144;6.244;2022-10-15T09:16:01;85.40;;;51.28;;
51732;SDS011;39139;53.144;6.244;2022-10-15T09:18:50;76.72;;;45.58;;
51732;SDS011;39139;53.144;6.244;2022-10-15T09:21:17;78.82;;;47.63;;
51732;SDS011;39139;53.144;6.244;2022-10-15T09:23:45;68.00;;;43.10;;
51732;SDS011;39139;53.144;6.244;2022-10-15T09:31:24;59.95;;;40.15;;
51732;SDS011;39139;53.144;6.244;2022-10-15T09:36:59;65.22;;;38.53;;
51732;SDS011;39139;53.144;6.244;2022-10-15T09:39:39;70.40;;;42.65;;
51732;SDS011;39139;53.144;6.244;2022-10-15T09:44:56;69.82;;;41.78;;
51732;SDS011;39139;53.144;6.244;2022-10-15T09:47:28;75.53;;;44.88;;
51732;SDS011;39139;53.144;6.244;2022-10-15T09:49:59;68.38;;;41.53;;
51732;SDS011;39139;53.144;6.244;2022-10-15T09:58:15;61.60;;;38.58;;
51732;SDS011;39139;53.144;6.244;2022-10-15T10:00:55;65.38;;;38.65;;
51732;SDS011;39139;53.144;6.244;2022-10-15T10:03:22;68.72;;;41.63;;
51732;SDS011;39139;53.144;6.244;2022-10-15T10:05:49;67.78;;;42.08;;
51732;SDS011;39139;53.144;6.244;2022-10-15T10:08:23;63.15;;;37.70;;
51732;SDS011;39139;53.144;6.244;2022-10-15T10:10:55;61.47;;;38.17;;
51732;SDS011;39139;53.144;6.244;2022-10-15T10:14:14;64.90;;;38.95;;
51732;SDS011;39139;53.144;6.244;2022-10-15T10:16:22;61.72;;;36.95;;
51732;SDS011;39139;53.144;6.244;2022-10-15T10:21:40;62.40;;;37.20;;
51732;SDS011;39139;53.144;6.244;2022-10-15T10:24:23;62.13;;;38.70;;
51732;SDS011;39139;53.144;6.244;2022-10-15T10:26:58;62.92;;;36.00;;
51732;SDS011;39139;53.144;6.244;2022-10-15T10:29:26;61.50;;;35.45;;
51732;SDS011;39139;53.144;6.244;2022-10-15T10:31:52;65.70;;;38.33;;
51732;SDS011;39139;53.144;6.244;2022-10-15T10:34:29;59.00;;;35.90;;
51732;SDS011;39139;53.144;6.244;2022-10-15T10:36:56;64.70;;;37.53;;
51732;SDS011;39139;53.144;6.244;2022-10-15T10:39:26;53.83;;;34.30;;
51732;SDS011;39139;53.144;6.244;2022-10-15T10:41:58;50.40;;;33.33;;
51732;SDS011;39139;53.144;6.244;2022-10-15T10:44:45;49.70;;;30.20;;
51732;SDS011;39139;53.144;6.244;2022-10-15T10:47:15;39.35;;;26.98;;
51732;SDS011;39139;53.144;6.244;2022-10-15T10:52:20;39.80;;;26.30;;
51732;SDS011;39139;53.144;6.244;2022-10-15T10:54:54;33.83;;;24.23;;
51732;SDS011;39139;53.144;6.244;2022-10-15T11:00:16;28.58;;;20.60;;
51732;SDS011;39139;53.144;6.244;2022-10-15T11:03:03;27.92;;;20.25;;
51732;SDS011;39139;53.144;6.244;2022-10-15T11:05:30;29.63;;;21.05;;
51732;SDS011;39139;53.144;6.244;2022-10-15T11:08:19;31.60;;;20.83;;
51732;SDS011;39139;53.144;6.244;2022-10-15T11:11:14;21.45;;;18.08;;
51732;SDS011;39139;53.144;6.244;2022-10-15T11:17:03;26.23;;;19.25;;
51732;SDS011;39139;53.144;6.244;2022-10-15T11:20:02;23.23;;;17.15;;
51732;SDS011;39139;53.144;6.244;2022-10-15T11:25:44;24.55;;;17.52;;
51732;SDS011;39139;53.144;6.244;2022-10-15T11:42:24;21.02;;;16.15;;
51732;SDS011;39139;53.144;6.244;2022-10-15T11:51:01;16.92;;;14.98;;
51732;SDS011;39139;53.144;6.244;2022-10-15T11:56:56;22.05;;;16.35;;
51732;SDS011;39139;53.144;6.244;2022-10-15T12:02:12;19.77;;;14.52;;
51732;SDS011;39139;53.144;6.244;2022-10-15T12:04:53;17.77;;;13.82;;
51732;SDS011;39139;53.144;6.244;2022-10-15T12:07:28;16.50;;;14.65;;
51732;SDS011;39139;53.144;6.244;2022-10-15T12:09:59;19.35;;;16.08;;
51732;SDS011;39139;53.144;6.244;2022-10-15T12:12:52;20.17;;;16.10;;
51732;SDS011;39139;53.144;6.244;2022-10-15T12:20:52;19.55;;;15.60;;
51732;SDS011;39139;53.144;6.244;2022-10-15T12:23:24;22.13;;;17.05;;
51732;SDS011;39139;53.144;6.244;2022-10-15T12:26:06;20.15;;;16.00;;
51732;SDS011;39139;53.144;6.244;2022-10-15T12:28:47;24.30;;;17.63;;
51732;SDS011;39139;53.144;6.244;2022-10-15T12:31:16;20.43;;;16.47;;
51732;SDS011;39139;53.144;6.244;2022-10-15T12:33:49;25.33;;;18.20;;
51732;SDS011;39139;53.144;6.244;2022-10-15T12:38:49;27.45;;;18.92;;
51732;SDS011;39139;53.144;6.244;2022-10-15T12:41:39;21.88;;;16.48;;
51732;SDS011;39139;53.144;6.244;2022-10-15T12:44:10;21.33;;;18.17;;
51732;SDS011;39139;53.144;6.244;2022-10-15T12:46:43;23.40;;;17.77;;
51732;SDS011;39139;53.144;6.244;2022-10-15T12:51:59;20.52;;;17.70;;
51732;SDS011;39139;53.144;6.244;2022-10-15T12:54:39;20.90;;;15.52;;
51732;SDS011;39139;53.144;6.244;2022-10-15T13:00:14;17.90;;;15.23;;
51732;SDS011;39139;53.144;6.244;2022-10-15T13:02:50;17.08;;;14.98;;
51732;SDS011;39139;53.144;6.244;2022-10-15T13:05:24;17.50;;;15.43;;
51732;SDS011;39139;53.144;6.244;2022-10-15T13:07:52;18.08;;;15.45;;
51732;SDS011;39139;53.144;6.244;2022-10-15T13:13:06;18.58;;;16.08;;
51732;SDS011;39139;53.144;6.244;2022-10-15T13:15:38;17.48;;;15.73;;
51732;SDS011;39139;53.144;6.244;2022-10-15T13:18:09;17.50;;;15.70;;
51732;SDS011;39139;53.144;6.244;2022-10-15T13:20:41;18.30;;;16.23;;
51732;SDS011;39139;53.144;6.244;2022-10-15T13:23:13;26.45;;;18.23;;
51732;SDS011;39139;53.144;6.244;2022-10-15T13:25:47;18.63;;;16.13;;
51732;SDS011;39139;53.144;6.244;2022-10-15T13:28:32;19.92;;;15.50;;
51732;SDS011;39139;53.144;6.244;2022-10-15T13:31:45;18.77;;;14.55;;
51732;SDS011;39139;53.144;6.244;2022-10-15T13:34:01;18.67;;;14.00;;
51732;SDS011;39139;53.144;6.244;2022-10-15T13:36:37;18.33;;;13.93;;
51732;SDS011;39139;53.144;6.244;2022-10-15T13:39:07;14.85;;;13.10;;
51732;SDS011;39139;53.144;6.244;2022-10-15T13:44:37;15.20;;;13.60;;
51732;SDS011;39139;53.144;6.244;2022-10-15T13:47:16;17.38;;;13.20;;
51732;SDS011;39139;53.144;6.244;2022-10-15T13:52:41;14.40;;;12.63;;
51732;SDS011;39139;53.144;6.244;2022-10-15T13:55:14;21.85;;;12.98;;
51732;SDS011;39139;53.144;6.244;2022-10-15T13:57:43;14.18;;;12.70;;
51732;SDS011;39139;53.144;6.244;2022-10-15T14:00:20;12.15;;;10.70;;
51732;SDS011;39139;53.144;6.244;2022-10-15T14:03:05;15.38;;;12.13;;
51732;SDS011;39139;53.144;6.244;2022-10-15T14:05:37;14.35;;;12.10;;
51732;SDS011;39139;53.144;6.244;2022-10-15T14:08:03;16.05;;;12.95;;
51732;SDS011;39139;53.144;6.244;2022-10-15T14:10:28;12.80;;;11.43;;
51732;SDS011;39139;53.144;6.244;2022-10-15T14:12:55;13.48;;;11.70;;
51732;SDS011;39139;53.144;6.244;2022-10-15T14:15:40;15.90;;;13.10;;
51732;SDS011;39139;53.144;6.244;2022-10-15T14:18:06;15.35;;;12.80;;
51732;SDS011;39139;53.144;6.244;2022-10-15T14:20:32;15.90;;;12.80;;
51732;SDS011;39139;53.144;6.244;2022-10-15T14:22:57;13.43;;;10.57;;
51732;SDS011;39139;53.144;6.244;2022-10-15T14:25:24;11.25;;;10.15;;
51732;SDS011;39139;53.144;6.244;2022-10-15T14:27:50;14.60;;;10.65;;
51732;SDS011;39139;53.144;6.244;2022-10-15T14:30:27;15.15;;;11.95;;
51732;SDS011;39139;53.144;6.244;2022-10-15T14:32:56;12.98;;;11.60;;
51732;SDS011;39139;53.144;6.244;2022-10-15T14:35:23;14.50;;;12.13;;
51732;SDS011;39139;53.144;6.244;2022-10-15T14:38:18;13.23;;;9.95;;
51732;SDS011;39139;53.144;6.244;2022-10-15T14:41:20;12.10;;;10.50;;
51732;SDS011;39139;53.144;6.244;2022-10-15T14:43:58;11.02;;;9.77;;
51732;SDS011;39139;53.144;6.244;2022-10-15T14:46:48;12.07;;;9.27;;
51732;SDS011;39139;53.144;6.244;2022-10-15T14:49:18;9.50;;;8.60;;
51732;SDS011;39139;53.144;6.244;2022-10-15T14:51:53;10.05;;;9.10;;
51732;SDS011;39139;53.144;6.244;2022-10-15T14:54:23;10.48;;;8.55;;
51732;SDS011;39139;53.144;6.244;2022-10-15T14:56:55;8.52;;;7.72;;
51732;SDS011;39139;53.144;6.244;2022-10-15T14:59:22;7.82;;;7.03;;
51732;SDS011;39139;53.144;6.244;2022-10-15T15:01:53;8.52;;;7.72;;
51732;SDS011;39139;53.144;6.244;2022-10-15T15:04:32;8.30;;;6.93;;
51732;SDS011;39139;53.144;6.244;2022-10-15T15:06:57;9.23;;;7.60;;
51732;SDS011;39139;53.144;6.244;2022-10-15T15:09:23;7.95;;;7.18;;
51732;SDS011;39139;53.144;6.244;2022-10-15T15:11:49;7.35;;;6.65;;
51732;SDS011;39139;53.144;6.244;2022-10-15T15:14:21;9.20;;;8.02;;
51732;SDS011;39139;53.144;6.244;2022-10-15T15:16:49;8.60;;;7.70;;
51732;SDS011;39139;53.144;6.244;2022-10-15T15:19:15;8.13;;;7.32;;
51732;SDS011;39139;53.144;6.244;2022-10-15T15:21:40;11.07;;;8.23;;
51732;SDS011;39139;53.144;6.244;2022-10-15T15:24:08;8.82;;;7.93;;
51732;SDS011;39139;53.144;6.244;2022-10-15T15:26:35;7.53;;;6.82;;
51732;SDS011;39139;53.144;6.244;2022-10-15T15:29:00;8.00;;;7.30;;
51732;SDS011;39139;53.144;6.244;2022-10-15T15:31:26;6.53;;;5.93;;
51732;SDS011;39139;53.144;6.244;2022-10-15T15:33:53;6.63;;;6.05;;
51732;SDS011;39139;53.144;6.244;2022-10-15T15:36:18;5.35;;;4.90;;
51732;SDS011;39139;53.144;6.244;2022-10-15T15:38:44;5.13;;;4.82;;
51732;SDS011;39139;53.144;6.244;2022-10-15T15:41:10;4.70;;;4.30;;
51732;SDS011;39139;53.144;6.244;2022-10-15T15:43:38;4.55;;;4.22;;
51732;SDS011;39139;53.144;6.244;2022-10-15T15:46:04;3.63;;;3.33;;
51732;SDS011;39139;53.144;6.244;2022-10-15T15:48:30;3.30;;;3.10;;
51732;SDS011;39139;53.144;6.244;2022-10-15T15:50:57;3.45;;;3.15;;
51732;SDS011;39139;53.144;6.244;2022-10-15T15:53:28;3.15;;;2.95;;
51732;SDS011;39139;53.144;6.244;2022-10-15T15:55:54;4.20;;;2.60;;
51732;SDS011;39139;53.144;6.244;2022-10-15T15:58:19;3.55;;;2.63;;
51732;SDS011;39139;53.144;6.244;2022-10-15T16:00:45;2.33;;;2.20;;
51732;SDS011;39139;53.144;6.244;2022-10-15T16:03:12;2.53;;;2.42;;
51732;SDS011;39139;53.144;6.244;2022-10-15T16:05:38;2.60;;;2.40;;
51732;SDS011;39139;53.144;6.244;2022-10-15T16:08:05;2.83;;;2.63;;
51732;SDS011;39139;53.144;6.244;2022-10-15T16:10:32;3.45;;;3.25;;
51732;SDS011;39139;53.144;6.244;2022-10-15T16:12:59;3.70;;;3.40;;
51732;SDS011;39139;53.144;6.244;2022-10-15T16:15:25;3.60;;;3.40;;
51732;SDS011;39139;53.144;6.244;2022-10-15T16:17:51;3.85;;;3.55;;
51732;SDS011;39139;53.144;6.244;2022-10-15T16:20:16;4.28;;;3.88;;
51732;SDS011;39139;53.144;6.244;2022-10-15T16:22:43;4.55;;;4.25;;
51732;SDS011;39139;53.144;6.244;2022-10-15T16:25:09;4.00;;;3.80;;
51732;SDS011;39139;53.144;6.244;2022-10-15T16:27:34;5.10;;;4.70;;
51732;SDS011;39139;53.144;6.244;2022-10-15T16:30:03;4.63;;;4.22;;